createdAt,value
2023-09-07T00:00:11.860Z,170.46
2023-09-07T00:01:02.268Z,168.97
2023-09-07T00:01:52.235Z,168.35
2023-09-07T00:02:42.733Z,172.17
2023-09-07T00:03:32.355Z,170.15
2023-09-07T00:04:22.499Z,170.20
2023-09-07T00:05:12.448Z,170.36
2023-09-07T00:06:02.485Z,170.17
2023-09-07T00:06:52.499Z,169.82
2023-09-07T00:07:42.664Z,170.67
2023-09-07T00:08:33.064Z,169.08
2023-09-07T00:09:23.078Z,169.30
2023-09-07T00:10:13.067Z,170.43
2023-09-07T00:11:03.130Z,170.84
2023-09-07T00:11:53.113Z,170.82
2023-09-07T00:12:43.283Z,166.06
2023-09-07T00:13:33.366Z,166.30
2023-09-07T00:14:23.349Z,169.18
2023-09-07T00:15:13.371Z,166.59
2023-09-07T00:16:03.560Z,168.52
2023-09-07T00:16:53.608Z,170.52
2023-09-07T00:17:43.634Z,173.79
2023-09-07T00:18:33.652Z,169.46
2023-09-07T00:19:23.710Z,169.81
2023-09-07T00:20:13.717Z,170.93
2023-09-07T00:21:03.814Z,170.63
2023-09-07T00:21:53.931Z,168.79
2023-09-07T00:22:44.066Z,167.90
2023-09-07T00:23:34.051Z,169.56
2023-09-07T00:24:24.146Z,165.90
2023-09-07T00:25:14.257Z,168.66
2023-09-07T00:26:04.269Z,172.77
2023-09-07T00:26:54.283Z,167.44
2023-09-07T00:27:44.414Z,165.45
2023-09-07T00:28:34.814Z,165.85
2023-09-07T00:29:24.614Z,170.86
2023-09-07T00:30:14.525Z,167.78
2023-09-07T00:31:04.653Z,167.05
2023-09-07T00:31:54.757Z,168.49
2023-09-07T00:32:44.756Z,168.49
2023-09-07T00:33:34.778Z,167.19
2023-09-07T00:34:24.957Z,165.39
2023-09-07T00:35:14.948Z,169.08
2023-09-07T00:36:05.051Z,168.80
2023-09-07T00:36:55.078Z,164.19
2023-09-07T00:37:45.200Z,166.31
2023-09-07T00:38:35.190Z,165.36
2023-09-07T00:39:25.274Z,169.36
2023-09-07T00:40:15.326Z,170.27
2023-09-07T00:41:05.395Z,169.91
2023-09-07T00:41:55.460Z,167.25
2023-09-07T00:42:45.572Z,166.82
2023-09-07T00:43:35.621Z,164.39
2023-09-07T00:44:25.722Z,172.26
2023-09-07T00:45:15.694Z,170.22
2023-09-07T00:46:05.883Z,169.43
2023-09-07T00:46:55.892Z,168.18
2023-09-07T00:47:45.912Z,165.85
2023-09-07T00:48:36.008Z,167.44
2023-09-07T00:49:26.280Z,165.59
2023-09-07T00:50:16.105Z,170.65
2023-09-07T00:51:06.194Z,169.58
2023-09-07T00:51:56.209Z,168.29
2023-09-07T00:52:46.338Z,167.67
2023-09-07T00:53:36.359Z,166.36
2023-09-07T00:54:26.508Z,163.95
2023-09-07T00:55:16.519Z,163.95
2023-09-07T00:56:06.630Z,163.66
2023-09-07T00:56:56.633Z,167.18
2023-09-07T00:57:46.981Z,167.63
2023-09-07T00:58:36.999Z,166.27
2023-09-07T00:59:27.054Z,169.63
2023-09-07T01:00:17.037Z,166.56
2023-09-07T01:01:07.270Z,169.95
2023-09-07T01:01:57.262Z,168.90
2023-09-07T01:02:47.420Z,167.34
2023-09-07T01:03:37.374Z,168.83
2023-09-07T01:04:27.492Z,169.45
2023-09-07T01:05:17.326Z,169.56
2023-09-07T01:06:07.413Z,164.65
2023-09-07T01:06:57.709Z,166.39
2023-09-07T01:07:47.893Z,161.89
2023-09-07T01:08:37.916Z,165.90
2023-09-07T01:09:27.946Z,166.27
2023-09-07T01:10:17.890Z,164.56
2023-09-07T01:11:08.076Z,167.52
2023-09-07T01:11:58.121Z,169.31
2023-09-07T01:12:48.112Z,166.56
2023-09-07T01:13:38.199Z,167.20
2023-09-07T01:14:28.296Z,166.13
2023-09-07T01:15:18.236Z,170.31
2023-09-07T01:16:08.542Z,168.02
2023-09-07T01:16:58.513Z,165.63
2023-09-07T01:17:48.605Z,166.69
2023-09-07T01:18:38.583Z,165.80
2023-09-07T01:19:28.656Z,170.16
2023-09-07T01:20:18.781Z,168.36
2023-09-07T01:21:08.964Z,165.42
2023-09-07T01:21:58.895Z,167.48
2023-09-07T01:22:49.404Z,161.33
2023-09-07T01:23:39.260Z,167.64
2023-09-07T01:24:29.383Z,163.96
2023-09-07T01:25:19.365Z,166.86
2023-09-07T01:26:09.506Z,164.71
2023-09-07T01:26:59.490Z,168.89
2023-09-07T01:27:49.651Z,167.01
2023-09-07T01:28:39.590Z,162.16
2023-09-07T01:29:29.728Z,164.53
2023-09-07T01:30:19.786Z,166.46
2023-09-07T01:31:09.860Z,165.04
2023-09-07T01:31:59.838Z,165.41
2023-09-07T01:32:50.037Z,167.20
2023-09-07T01:33:39.932Z,163.27
2023-09-07T01:34:30.144Z,169.67
2023-09-07T01:35:20.164Z,167.14
2023-09-07T01:36:10.188Z,161.99
2023-09-07T01:37:00.165Z,164.84
2023-09-07T01:37:50.397Z,165.85
2023-09-07T01:38:40.308Z,165.19
2023-09-07T01:39:30.414Z,164.17
2023-09-07T01:40:20.438Z,166.97
2023-09-07T01:41:10.544Z,166.83
2023-09-07T01:42:00.567Z,165.48
2023-09-07T01:42:50.681Z,162.53
2023-09-07T01:43:40.672Z,162.82
2023-09-07T01:44:30.799Z,161.27
2023-09-07T01:45:20.771Z,162.71
2023-09-07T01:46:10.906Z,163.09
2023-09-07T01:47:00.991Z,162.69
2023-09-07T01:47:51.103Z,164.56
2023-09-07T01:48:41.034Z,165.51
2023-09-07T01:49:31.119Z,162.77
2023-09-07T01:50:21.081Z,165.35
2023-09-07T01:51:11.218Z,162.58
2023-09-07T01:52:01.200Z,167.09
2023-09-07T01:52:51.366Z,165.95
2023-09-07T01:53:41.310Z,162.95
2023-09-07T01:54:31.444Z,164.10
2023-09-07T01:55:21.456Z,166.54
2023-09-07T01:56:11.673Z,163.21
2023-09-07T01:57:01.547Z,166.24
2023-09-07T01:57:51.713Z,166.28
2023-09-07T01:58:41.657Z,165.19
2023-09-07T01:59:31.788Z,164.08
2023-09-07T02:00:21.749Z,167.85
2023-09-07T02:01:11.977Z,165.60
2023-09-07T02:02:01.962Z,165.57
2023-09-07T02:02:52.097Z,165.70
2023-09-07T02:03:42.043Z,163.65
2023-09-07T02:04:32.272Z,161.85
2023-09-07T02:05:22.204Z,164.40
2023-09-07T02:06:12.249Z,164.21
2023-09-07T02:07:02.274Z,163.29
2023-09-07T02:07:52.410Z,165.57
2023-09-07T02:08:42.511Z,163.33
2023-09-07T02:09:32.676Z,165.59
2023-09-07T02:10:22.618Z,163.55
2023-09-07T02:11:12.760Z,165.77
2023-09-07T02:12:02.746Z,165.40
2023-09-07T02:12:52.840Z,162.79
2023-09-07T02:13:42.887Z,162.87
2023-09-07T02:14:33.022Z,162.66
2023-09-07T02:15:23.005Z,166.97
2023-09-07T02:16:13.252Z,166.62
2023-09-07T02:17:03.240Z,163.65
2023-09-07T02:17:53.256Z,165.82
2023-09-07T02:18:43.206Z,165.01
2023-09-07T02:19:33.345Z,162.47
2023-09-07T02:20:23.386Z,165.49
2023-09-07T02:21:13.419Z,162.62
2023-09-07T02:22:03.524Z,163.87
2023-09-07T02:22:53.634Z,163.08
2023-09-07T02:23:43.703Z,163.54
2023-09-07T02:24:33.780Z,162.23
2023-09-07T02:25:23.767Z,162.02
2023-09-07T02:26:13.927Z,162.55
2023-09-07T02:27:03.890Z,159.25
2023-09-07T02:27:53.978Z,159.87
2023-09-07T02:28:44.091Z,162.94
2023-09-07T02:29:34.251Z,156.02
2023-09-07T02:30:24.351Z,156.54
2023-09-07T02:31:14.341Z,159.15
2023-09-07T02:32:04.283Z,157.05
2023-09-07T02:32:54.479Z,159.10
2023-09-07T02:33:44.420Z,157.08
2023-09-07T02:34:34.573Z,154.90
2023-09-07T02:35:24.714Z,159.99
2023-09-07T02:36:14.775Z,155.65
2023-09-07T02:37:04.696Z,156.56
2023-09-07T02:37:54.866Z,155.99
2023-09-07T02:38:44.848Z,157.36
2023-09-07T02:39:34.921Z,157.35
2023-09-07T02:40:24.935Z,157.36
2023-09-07T02:41:15.154Z,159.01
2023-09-07T02:42:05.096Z,157.75
2023-09-07T02:42:55.215Z,157.66
2023-09-07T02:43:45.198Z,153.21
2023-09-07T02:44:35.362Z,157.81
2023-09-07T02:45:25.387Z,153.38
2023-09-07T02:46:15.457Z,153.16
2023-09-07T02:47:05.425Z,153.51
2023-09-07T02:47:55.664Z,151.47
2023-09-07T02:48:45.611Z,152.12
2023-09-07T02:49:35.708Z,155.79
2023-09-07T02:50:25.688Z,152.83
2023-09-07T02:51:16.176Z,153.43
2023-09-07T02:52:06.084Z,152.00
2023-09-07T02:52:56.206Z,154.08
2023-09-07T02:53:46.186Z,154.59
2023-09-07T02:54:36.354Z,149.34
2023-09-07T02:55:26.325Z,148.07
2023-09-07T02:56:16.438Z,148.15
2023-09-07T02:57:06.417Z,151.85
2023-09-07T02:57:56.565Z,151.09
2023-09-07T02:58:46.553Z,149.42
2023-09-07T02:59:36.703Z,148.52
2023-09-07T03:00:26.636Z,146.28
2023-09-07T03:01:16.907Z,145.82
2023-09-07T03:02:06.796Z,149.97
2023-09-07T03:02:57.005Z,146.46
2023-09-07T03:03:46.948Z,146.94
2023-09-07T03:04:36.992Z,146.67
2023-09-07T03:05:26.994Z,145.46
2023-09-07T03:06:17.131Z,144.00
2023-09-07T03:07:07.112Z,145.25
2023-09-07T03:07:57.264Z,147.55
2023-09-07T03:08:47.175Z,147.44
2023-09-07T03:09:37.286Z,145.03
2023-09-07T03:10:27.361Z,147.73
2023-09-07T03:11:17.469Z,148.46
2023-09-07T03:12:07.405Z,145.85
2023-09-07T03:12:57.490Z,143.58
2023-09-07T03:13:47.558Z,144.76
2023-09-07T03:14:37.627Z,145.82
2023-09-07T03:15:27.615Z,142.13
2023-09-07T03:16:17.877Z,145.72
2023-09-07T03:17:07.865Z,144.59
2023-09-07T03:17:57.949Z,143.05
2023-09-07T03:18:47.862Z,147.57
2023-09-07T03:19:37.968Z,143.14
2023-09-07T03:20:28.254Z,143.14
2023-09-07T03:21:18.363Z,144.22
2023-09-07T03:22:08.439Z,146.77
2023-09-07T03:22:58.796Z,142.40
2023-09-07T03:23:48.753Z,141.91
2023-09-07T03:24:38.922Z,143.02
2023-09-07T03:25:28.936Z,143.51
2023-09-07T03:26:19.005Z,143.32
2023-09-07T03:27:08.982Z,143.76
2023-09-07T03:27:59.206Z,145.44
2023-09-07T03:28:49.118Z,145.09
2023-09-07T03:29:39.265Z,140.08
2023-09-07T03:30:29.245Z,142.90
2023-09-07T03:31:19.395Z,140.98
2023-09-07T03:32:09.452Z,142.46
2023-09-07T03:32:59.609Z,144.09
2023-09-07T03:33:49.499Z,144.32
2023-09-07T03:34:39.605Z,140.63
2023-09-07T03:35:29.634Z,141.85
2023-09-07T03:36:19.792Z,143.51
2023-09-07T03:37:09.815Z,141.98
2023-09-07T03:37:59.901Z,142.00
2023-09-07T03:38:49.995Z,142.92
2023-09-07T03:39:40.069Z,137.67
2023-09-07T03:40:30.037Z,136.61
2023-09-07T03:41:20.127Z,142.36
2023-09-07T03:42:10.150Z,137.43
2023-09-07T03:43:00.265Z,138.31
2023-09-07T03:43:50.269Z,138.69
2023-09-07T03:44:40.395Z,136.95
2023-09-07T03:45:30.372Z,138.89
2023-09-07T03:46:20.597Z,141.93
2023-09-07T03:47:10.543Z,141.88
2023-09-07T03:48:00.644Z,143.38
2023-09-07T03:48:50.673Z,140.26
2023-09-07T03:49:40.739Z,136.99
2023-09-07T03:50:30.711Z,140.77
2023-09-07T03:51:20.913Z,141.42
2023-09-07T03:52:11.057Z,142.53
2023-09-07T03:53:01.168Z,142.29
2023-09-07T03:53:51.166Z,140.42
2023-09-07T03:54:41.308Z,143.18
2023-09-07T03:55:31.304Z,139.43
2023-09-07T03:56:21.461Z,141.34
2023-09-07T03:57:11.448Z,141.70
2023-09-07T03:58:01.589Z,141.82
2023-09-07T03:58:51.562Z,141.81
2023-09-07T03:59:41.635Z,140.93
2023-09-07T04:00:31.680Z,143.33
2023-09-07T04:01:21.878Z,144.43
2023-09-07T04:02:12.001Z,147.64
2023-09-07T04:03:01.994Z,140.57
2023-09-07T04:03:52.200Z,145.24
2023-09-07T04:04:42.043Z,140.73
2023-09-07T04:05:32.037Z,145.11
2023-09-07T04:06:22.147Z,143.27
2023-09-07T04:07:12.083Z,142.34
2023-09-07T04:08:02.163Z,140.59
2023-09-07T04:08:52.285Z,140.03
2023-09-07T04:09:44.658Z,143.68
2023-09-07T04:10:32.396Z,143.69
2023-09-07T04:11:22.492Z,143.72
2023-09-07T04:12:12.743Z,144.03
2023-09-07T04:13:02.715Z,144.38
2023-09-07T04:13:52.732Z,146.72
2023-09-07T04:14:42.928Z,147.40
2023-09-07T04:15:32.864Z,145.69
2023-09-07T04:16:23.088Z,147.37
2023-09-07T04:17:12.974Z,142.20
2023-09-07T04:18:03.070Z,142.90
2023-09-07T04:18:53.233Z,146.18
2023-09-07T04:19:43.309Z,143.16
2023-09-07T04:20:33.287Z,143.44
2023-09-07T04:21:23.439Z,141.29
2023-09-07T04:22:13.410Z,145.16
2023-09-07T04:23:03.472Z,142.14
2023-09-07T04:23:53.523Z,140.08
2023-09-07T04:24:43.635Z,142.93
2023-09-07T04:25:33.656Z,140.76
2023-09-07T04:26:23.769Z,144.88
2023-09-07T04:27:13.770Z,145.05
2023-09-07T04:28:03.885Z,144.40
2023-09-07T04:28:53.881Z,145.80
2023-09-07T04:29:43.967Z,147.33
2023-09-07T04:30:34.071Z,147.12
2023-09-07T04:31:24.105Z,141.50
2023-09-07T04:32:14.143Z,142.66
2023-09-07T04:33:04.224Z,146.33
2023-09-07T04:33:54.278Z,143.23
2023-09-07T04:34:44.615Z,147.49
2023-09-07T04:35:34.687Z,142.79
2023-09-07T04:36:24.762Z,140.00
2023-09-07T04:37:14.792Z,141.40
2023-09-07T04:38:04.921Z,141.46
2023-09-07T04:38:54.906Z,139.28
2023-09-07T04:39:44.967Z,140.29
2023-09-07T04:40:35.111Z,140.70
2023-09-07T04:41:25.115Z,147.08
2023-09-07T04:42:15.258Z,137.77
2023-09-07T04:43:05.186Z,134.60
2023-09-07T04:43:55.799Z,133.37
2023-09-07T04:44:45.562Z,132.22
2023-09-07T04:45:35.659Z,127.80
2023-09-07T04:46:25.762Z,127.17
2023-09-07T04:47:15.801Z,129.17
2023-09-07T04:48:05.846Z,127.68
2023-09-07T04:48:55.871Z,131.09
2023-09-07T04:49:45.952Z,128.53
2023-09-07T04:50:36.003Z,133.43
2023-09-07T04:51:26.086Z,124.42
2023-09-07T04:52:16.108Z,116.00
2023-09-07T04:53:06.322Z,125.54
2023-09-07T04:53:56.251Z,126.97
2023-09-07T04:54:46.326Z,128.44
2023-09-07T04:55:36.396Z,130.16
2023-09-07T04:56:26.517Z,133.00
2023-09-07T04:57:16.614Z,139.06
2023-09-07T04:58:06.719Z,133.49
2023-09-07T04:58:56.751Z,135.51
2023-09-07T04:59:47.157Z,136.91
2023-09-07T05:00:37.126Z,140.00
2023-09-07T05:01:27.312Z,137.13
2023-09-07T05:02:17.274Z,139.86
2023-09-07T05:03:07.462Z,134.35
2023-09-07T05:03:57.387Z,139.58
2023-09-07T05:04:47.395Z,141.61
2023-09-07T05:05:37.461Z,133.16
2023-09-07T05:06:27.663Z,135.75
2023-09-07T05:07:17.591Z,130.63
2023-09-07T05:08:07.690Z,134.59
2023-09-07T05:08:57.893Z,125.59
2023-09-07T05:09:47.984Z,128.76
2023-09-07T05:10:38.079Z,131.31
2023-09-07T05:11:28.122Z,132.61
2023-09-07T05:12:18.225Z,132.03
2023-09-07T05:13:08.217Z,135.76
2023-09-07T05:14:04.434Z,133.85
2023-09-07T05:14:48.343Z,133.95
2023-09-07T05:15:38.409Z,134.63
2023-09-07T05:16:28.583Z,133.59
2023-09-07T05:17:18.512Z,124.88
2023-09-07T05:18:08.664Z,124.46
2023-09-07T05:18:58.634Z,122.84
2023-09-07T05:19:48.666Z,125.64
2023-09-07T05:20:38.739Z,126.97
2023-09-07T05:21:28.854Z,128.86
2023-09-07T05:22:18.857Z,132.97
2023-09-07T05:23:08.937Z,131.38
2023-09-07T05:23:58.980Z,133.57
2023-09-07T05:24:49.031Z,130.88
2023-09-07T05:25:39.086Z,127.50
2023-09-07T05:26:29.197Z,129.81
2023-09-07T05:27:19.204Z,129.46
2023-09-07T05:28:09.265Z,135.11
2023-09-07T05:28:59.330Z,134.91
2023-09-07T05:29:49.440Z,132.98
2023-09-07T05:30:39.530Z,134.78
2023-09-07T05:31:29.610Z,139.41
2023-09-07T05:32:19.574Z,137.53
2023-09-07T05:33:09.700Z,139.44
2023-09-07T05:34:00.027Z,138.89
2023-09-07T05:34:50.036Z,146.74
2023-09-07T05:35:40.097Z,145.99
2023-09-07T05:36:30.452Z,144.57
2023-09-07T05:37:20.544Z,146.03
2023-09-07T05:38:10.538Z,145.65
2023-09-07T05:39:00.601Z,142.70
2023-09-07T05:39:50.768Z,142.09
2023-09-07T05:40:40.749Z,142.31
2023-09-07T05:41:30.844Z,140.94
2023-09-07T05:42:20.867Z,143.51
2023-09-07T05:43:10.955Z,148.25
2023-09-07T05:44:00.978Z,143.86
2023-09-07T05:44:52.435Z,150.07
2023-09-07T05:45:41.081Z,145.86
2023-09-07T05:46:31.246Z,145.20
2023-09-07T05:47:21.261Z,147.00
2023-09-07T05:48:11.331Z,148.87
2023-09-07T05:49:01.392Z,145.60
2023-09-07T05:49:51.432Z,149.26
2023-09-07T05:50:41.455Z,145.48
2023-09-07T05:51:31.557Z,150.16
2023-09-07T05:52:21.633Z,148.23
2023-09-07T05:53:11.644Z,148.40
2023-09-07T05:54:01.715Z,150.66
2023-09-07T05:54:51.912Z,148.15
2023-09-07T05:55:41.878Z,145.78
2023-09-07T05:56:31.877Z,145.94
2023-09-07T05:57:21.913Z,146.97
2023-09-07T05:58:11.985Z,149.32
2023-09-07T05:59:02.017Z,150.63
2023-09-07T05:59:52.099Z,148.23
2023-09-07T06:00:42.266Z,145.97
2023-09-07T06:01:32.237Z,146.99
2023-09-07T06:02:22.326Z,149.56
2023-09-07T06:03:12.549Z,150.07
2023-09-07T06:04:02.576Z,148.56
2023-09-07T06:04:52.435Z,149.57
2023-09-07T06:05:42.500Z,150.97
2023-09-07T06:06:32.603Z,147.12
2023-09-07T06:07:22.641Z,148.55
2023-09-07T06:08:12.699Z,144.96
2023-09-07T06:09:02.861Z,150.97
2023-09-07T06:09:52.816Z,150.77
2023-09-07T06:10:42.881Z,149.08
2023-09-07T06:11:33.294Z,149.55
2023-09-07T06:12:23.214Z,148.56
2023-09-07T06:13:13.302Z,146.79
2023-09-07T06:14:03.346Z,152.25
2023-09-07T06:14:53.441Z,148.72
2023-09-07T06:15:43.500Z,148.84
2023-09-07T06:16:33.657Z,147.76
2023-09-07T06:17:23.668Z,150.02
2023-09-07T06:18:13.732Z,151.68
2023-09-07T06:19:03.749Z,151.36
2023-09-07T06:19:54.790Z,152.02
2023-09-07T06:20:44.097Z,151.18
2023-09-07T06:21:34.167Z,151.21
2023-09-07T06:22:24.250Z,146.38
2023-09-07T06:23:14.274Z,146.39
2023-09-07T06:24:04.345Z,150.66
2023-09-07T06:24:54.424Z,148.13
2023-09-07T06:25:44.465Z,149.14
2023-09-07T06:26:34.560Z,148.35
2023-09-07T06:27:24.586Z,149.23
2023-09-07T06:28:14.827Z,147.40
2023-09-07T06:29:04.887Z,147.13
2023-09-07T06:29:54.963Z,145.76
2023-09-07T06:30:45.038Z,145.80
2023-09-07T06:31:35.282Z,145.93
2023-09-07T06:32:25.199Z,146.58
2023-09-07T06:33:15.214Z,146.49
2023-09-07T06:34:05.238Z,148.13
2023-09-07T06:34:56.363Z,146.46
2023-09-07T06:35:45.357Z,147.64
2023-09-07T06:36:47.309Z,148.07
2023-09-07T06:37:26.476Z,148.09
2023-09-07T06:38:15.762Z,148.25
2023-09-07T06:39:05.605Z,148.25
2023-09-07T06:39:55.669Z,148.30
2023-09-07T06:40:45.736Z,144.48
2023-09-07T06:41:35.834Z,146.06
2023-09-07T06:42:25.844Z,140.51
2023-09-07T06:43:15.983Z,147.28
2023-09-07T06:44:06.006Z,141.30
2023-09-07T06:44:56.088Z,143.33
2023-09-07T06:45:46.118Z,145.62
2023-09-07T06:46:36.259Z,143.52
2023-09-07T06:47:26.263Z,142.15
2023-09-07T06:48:16.348Z,141.27
2023-09-07T06:49:06.353Z,142.47
2023-09-07T06:49:56.431Z,142.84
2023-09-07T06:50:46.521Z,140.40
2023-09-07T06:51:36.542Z,143.05
2023-09-07T06:52:26.666Z,139.33
2023-09-07T06:53:16.609Z,142.77
2023-09-07T06:54:06.725Z,142.27
2023-09-07T06:54:56.738Z,136.84
2023-09-07T06:55:46.791Z,142.63
2023-09-07T06:56:36.930Z,142.00
2023-09-07T06:57:27.038Z,140.45
2023-09-07T06:58:17.021Z,139.22
2023-09-07T06:59:07.076Z,135.81
2023-09-07T06:59:57.152Z,139.23
2023-09-07T07:00:47.264Z,140.58
2023-09-07T07:01:37.320Z,134.83
2023-09-07T07:02:27.457Z,134.90
2023-09-07T07:03:17.438Z,135.43
2023-09-07T07:04:07.582Z,135.30
2023-09-07T07:04:57.513Z,137.35
2023-09-07T07:05:47.522Z,137.90
2023-09-07T07:06:37.773Z,137.54
2023-09-07T07:07:27.836Z,136.72
2023-09-07T07:08:17.878Z,139.02
2023-09-07T07:09:08.217Z,135.39
2023-09-07T07:09:58.285Z,135.70
2023-09-07T07:10:48.419Z,135.40
2023-09-07T07:11:38.667Z,137.42
2023-09-07T07:12:28.681Z,135.74
2023-09-07T07:13:18.819Z,135.49
2023-09-07T07:14:08.791Z,140.94
2023-09-07T07:14:58.866Z,140.25
2023-09-07T07:15:48.934Z,137.63
2023-09-07T07:16:39.134Z,140.79
2023-09-07T07:17:29.117Z,141.96
2023-09-07T07:18:19.183Z,137.92
2023-09-07T07:19:09.163Z,136.40
2023-09-07T07:19:59.344Z,138.44
2023-09-07T07:20:49.499Z,141.03
2023-09-07T07:21:39.602Z,135.54
2023-09-07T07:22:29.698Z,139.05
2023-09-07T07:23:19.679Z,139.12
2023-09-07T07:24:09.751Z,141.19
2023-09-07T07:24:59.828Z,139.81
2023-09-07T07:25:49.906Z,141.55
2023-09-07T07:26:39.972Z,141.42
2023-09-07T07:27:29.998Z,141.47
2023-09-07T07:28:20.066Z,140.57
2023-09-07T07:29:10.137Z,138.26
2023-09-07T07:30:00.439Z,144.23
2023-09-07T07:30:50.414Z,140.96
2023-09-07T07:31:40.550Z,143.94
2023-09-07T07:32:30.574Z,147.82
2023-09-07T07:33:20.740Z,141.82
2023-09-07T07:34:10.681Z,140.61
2023-09-07T07:35:00.766Z,141.51
2023-09-07T07:35:50.863Z,142.52
2023-09-07T07:36:40.867Z,144.42
2023-09-07T07:37:30.903Z,146.39
2023-09-07T07:38:20.972Z,139.27
2023-09-07T07:39:11.447Z,138.94
2023-09-07T07:40:01.373Z,140.05
2023-09-07T07:40:51.460Z,143.25
2023-09-07T07:41:43.561Z,141.21
2023-09-07T07:42:31.784Z,141.81
2023-09-07T07:43:21.852Z,141.22
2023-09-07T07:44:11.928Z,140.51
2023-09-07T07:45:02.003Z,144.93
2023-09-07T07:45:52.152Z,144.99
2023-09-07T07:46:42.257Z,142.01
2023-09-07T07:47:32.178Z,142.95
2023-09-07T07:48:22.319Z,142.36
2023-09-07T07:49:12.371Z,141.32
2023-09-07T07:50:02.427Z,141.35
2023-09-07T07:50:52.456Z,142.60
2023-09-07T07:51:42.562Z,141.60
2023-09-07T07:52:32.592Z,142.81
2023-09-07T07:53:22.773Z,143.51
2023-09-07T07:54:12.669Z,142.05
2023-09-07T07:55:02.741Z,142.83
2023-09-07T07:55:52.907Z,141.13
2023-09-07T07:56:42.897Z,143.35
2023-09-07T07:57:32.920Z,141.91
2023-09-07T07:58:22.987Z,141.08
2023-09-07T07:59:13.219Z,139.64
2023-09-07T08:00:03.360Z,144.04
2023-09-07T08:00:53.338Z,138.68
2023-09-07T08:01:43.471Z,139.84
2023-09-07T08:02:33.520Z,145.59
2023-09-07T08:03:23.540Z,140.63
2023-09-07T08:04:13.650Z,139.41
2023-09-07T08:05:03.811Z,138.35
2023-09-07T08:05:53.713Z,143.69
2023-09-07T08:06:43.816Z,141.13
2023-09-07T08:07:33.896Z,142.36
2023-09-07T08:08:23.910Z,141.12
2023-09-07T08:09:13.970Z,143.17
2023-09-07T08:10:04.039Z,137.24
2023-09-07T08:10:54.177Z,142.15
2023-09-07T08:11:44.219Z,142.67
2023-09-07T08:12:34.245Z,140.18
2023-09-07T08:13:24.314Z,137.20
2023-09-07T08:14:14.402Z,143.74
2023-09-07T08:15:04.645Z,141.49
2023-09-07T08:15:54.773Z,139.21
2023-09-07T08:16:44.971Z,142.72
2023-09-07T08:17:35.444Z,140.91
2023-09-07T08:18:25.236Z,140.96
2023-09-07T08:19:15.216Z,141.05
2023-09-07T08:20:05.246Z,141.16
2023-09-07T08:20:55.312Z,141.48
2023-09-07T08:21:45.377Z,141.69
2023-09-07T08:22:35.455Z,139.35
2023-09-07T08:23:25.550Z,141.29
2023-09-07T08:24:15.568Z,140.96
2023-09-07T08:25:05.816Z,143.73
2023-09-07T08:25:55.941Z,142.94
2023-09-07T08:26:45.960Z,142.94
2023-09-07T08:27:35.977Z,141.68
2023-09-07T08:28:26.046Z,143.39
2023-09-07T08:29:16.113Z,142.35
2023-09-07T08:30:06.179Z,143.61
2023-09-07T08:30:56.436Z,141.91
2023-09-07T08:31:46.332Z,144.60
2023-09-07T08:32:36.474Z,143.48
2023-09-07T08:33:26.577Z,144.22
2023-09-07T08:34:16.622Z,139.42
2023-09-07T08:35:06.747Z,143.67
2023-09-07T08:35:56.728Z,141.59
2023-09-07T08:36:46.840Z,145.56
2023-09-07T08:37:36.829Z,140.99
2023-09-07T08:38:26.899Z,141.33
2023-09-07T08:39:17.042Z,141.34
2023-09-07T08:40:07.005Z,144.19
2023-09-07T08:40:57.142Z,142.32
2023-09-07T08:42:00.774Z,142.20
2023-09-07T08:42:38.233Z,141.92
2023-09-07T08:43:27.250Z,142.47
2023-09-07T08:44:17.287Z,142.94
2023-09-07T08:45:07.499Z,142.27
2023-09-07T08:45:57.477Z,144.85
2023-09-07T08:46:47.508Z,141.23
2023-09-07T08:47:37.525Z,139.98
2023-09-07T08:48:27.547Z,142.60
2023-09-07T08:49:17.569Z,138.27
2023-09-07T08:50:07.710Z,140.83
2023-09-07T08:50:57.701Z,140.40
2023-09-07T08:51:47.787Z,135.68
2023-09-07T08:52:37.909Z,134.94
2023-09-07T08:53:27.927Z,135.05
2023-09-07T08:54:17.995Z,141.68
2023-09-07T08:55:08.121Z,132.83
2023-09-07T08:55:58.139Z,137.76
2023-09-07T08:56:48.304Z,136.68
2023-09-07T08:57:38.268Z,133.41
2023-09-07T08:58:28.380Z,133.64
2023-09-07T08:59:18.386Z,136.49
2023-09-07T09:00:08.473Z,132.15
2023-09-07T09:01:07.449Z,134.89
2023-09-07T09:01:48.714Z,133.75
2023-09-07T09:02:38.849Z,134.04
2023-09-07T09:03:28.853Z,135.40
2023-09-07T09:04:18.782Z,132.98
2023-09-07T09:05:08.758Z,135.70
2023-09-07T09:05:58.951Z,134.50
2023-09-07T09:06:49.038Z,136.20
2023-09-07T09:07:39.084Z,140.55
2023-09-07T09:08:29.758Z,136.58
2023-09-07T09:09:19.490Z,137.98
2023-09-07T09:10:09.555Z,135.49
2023-09-07T09:10:59.580Z,140.14
2023-09-07T09:11:49.646Z,137.55
2023-09-07T09:12:39.658Z,135.90
2023-09-07T09:13:29.745Z,135.66
2023-09-07T09:14:19.786Z,133.46
2023-09-07T09:15:10.030Z,137.52
2023-09-07T09:16:00.222Z,135.94
2023-09-07T09:16:50.183Z,134.74
2023-09-07T09:17:40.274Z,131.56
2023-09-07T09:18:30.786Z,130.94
2023-09-07T09:19:20.335Z,136.91
2023-09-07T09:20:10.403Z,129.31
2023-09-07T09:21:00.463Z,132.34
2023-09-07T09:21:50.546Z,130.92
2023-09-07T09:22:40.574Z,130.54
2023-09-07T09:23:30.672Z,133.63
2023-09-07T09:24:20.912Z,129.75
2023-09-07T09:25:10.976Z,130.95
2023-09-07T09:26:01.079Z,123.82
2023-09-07T09:26:51.080Z,127.62
2023-09-07T09:27:41.132Z,128.18
2023-09-07T09:28:31.462Z,127.22
2023-09-07T09:29:21.219Z,124.41
2023-09-07T09:30:11.281Z,125.11
2023-09-07T09:31:01.377Z,125.23
2023-09-07T09:31:51.434Z,125.79
2023-09-07T09:32:41.478Z,126.85
2023-09-07T09:33:31.804Z,123.36
2023-09-07T09:34:21.925Z,123.12
2023-09-07T09:35:11.921Z,121.94
2023-09-07T09:36:02.010Z,126.07
2023-09-07T09:36:52.070Z,126.54
2023-09-07T09:37:42.101Z,125.82
2023-09-07T09:38:32.425Z,126.66
2023-09-07T09:39:22.246Z,124.63
2023-09-07T09:40:12.374Z,122.36
2023-09-07T09:41:02.364Z,124.31
2023-09-07T09:41:52.486Z,122.83
2023-09-07T09:42:42.741Z,123.70
2023-09-07T09:43:32.821Z,124.78
2023-09-07T09:44:22.898Z,127.40
2023-09-07T09:45:13.167Z,121.73
2023-09-07T09:46:03.728Z,125.18
2023-09-07T09:46:53.409Z,124.10
2023-09-07T09:47:43.435Z,122.14
2023-09-07T09:48:33.834Z,124.22
2023-09-07T09:49:23.480Z,125.79
2023-09-07T09:50:13.566Z,124.60
2023-09-07T09:51:03.746Z,124.79
2023-09-07T09:51:53.831Z,125.37
2023-09-07T09:52:43.943Z,122.65
2023-09-07T09:53:34.289Z,122.83
2023-09-07T09:54:24.267Z,123.22
2023-09-07T09:55:14.471Z,120.69
2023-09-07T09:56:04.451Z,120.56
2023-09-07T09:56:54.481Z,123.28
2023-09-07T09:57:44.480Z,124.00
2023-09-07T09:58:34.778Z,121.91
2023-09-07T09:59:24.597Z,120.85
2023-09-07T10:00:14.665Z,121.51
2023-09-07T10:01:04.745Z,124.95
2023-09-07T10:01:54.844Z,119.06
2023-09-07T10:02:44.821Z,122.43
2023-09-07T10:03:34.908Z,121.83
2023-09-07T10:04:24.934Z,122.51
2023-09-07T10:05:15.074Z,118.93
2023-09-07T10:06:05.085Z,122.75
2023-09-07T10:06:55.157Z,117.78
2023-09-07T10:07:45.191Z,124.10
2023-09-07T10:08:35.235Z,120.34
2023-09-07T10:09:25.518Z,117.04
2023-09-07T10:10:15.608Z,119.12
2023-09-07T10:11:05.670Z,118.86
2023-09-07T10:11:55.728Z,118.08
2023-09-07T10:12:45.780Z,118.86
2023-09-07T10:13:35.798Z,119.82
2023-09-07T10:14:25.899Z,114.13
2023-09-07T10:15:15.936Z,118.35
2023-09-07T10:16:06.075Z,117.28
2023-09-07T10:16:56.235Z,117.75
2023-09-07T10:17:46.211Z,120.68
2023-09-07T10:18:36.153Z,117.43
2023-09-07T10:19:26.252Z,118.16
2023-09-07T10:20:16.321Z,117.71
2023-09-07T10:21:06.395Z,115.62
2023-09-07T10:21:56.445Z,113.91
2023-09-07T10:22:46.463Z,116.98
2023-09-07T10:23:36.555Z,115.16
2023-09-07T10:24:26.614Z,117.87